Time;durP1;ratioP1;P1;durP2;ratioP2;P2;SDS_P1;SDS_P2;PMS_P1;PMS_P2;Temp;Humidity;BMP_temperature;BMP_pressure;BME280_temperature;BME280_humidity;BME280_pressure;Samples;Min_cycle;Max_cycle;Signal;HPM_P1;HPM_P2
2023/06/27 00:00:40;;;;;;;13.98;4.18;;;15.60;99.90;;;;;;5044989;28;20032;-74
2023/06/27 00:03:06;;;;;;;14.80;4.00;;;15.60;99.90;;;;;;5045147;28;20044;-73
2023/06/27 00:05:32;;;;;;;14.77;3.97;;;15.50;99.90;;;;;;5044745;28;20026;-74
2023/06/27 00:07:57;;;;;;;15.88;3.85;;;15.50;99.90;;;;;;5044228;28;20025;-76
2023/06/27 00:10:23;;;;;;;20.42;4.72;;;15.50;99.90;;;;;;5044810;28;20025;-73
2023/06/27 00:12:48;;;;;;;20.40;4.25;;;15.40;99.90;;;;;;5044140;28;20017;-75
2023/06/27 00:15:14;;;;;;;17.60;4.70;;;15.40;99.90;;;;;;5044246;28;20033;-74
2023/06/27 00:17:42;;;;;;;13.27;3.90;;;15.30;99.90;;;;;;5040989;28;20045;-74
2023/06/27 00:20:09;;;;;;;17.10;4.28;;;15.40;99.90;;;;;;5044074;28;20024;-75
2023/06/27 00:22:40;;;;;;;20.00;4.85;;;15.40;99.90;;;;;;5043887;28;20072;-74
2023/06/27 00:25:07;;;;;;;18.70;4.35;;;15.40;99.90;;;;;;5026403;28;20028;-73
2023/06/27 00:27:33;;;;;;;13.77;4.22;;;15.40;99.90;;;;;;5041643;28;20026;-76
2023/06/27 00:29:58;;;;;;;15.88;4.25;;;15.50;99.90;;;;;;5025912;28;20028;-75
2023/06/27 00:32:24;;;;;;;15.13;3.80;;;15.50;99.90;;;;;;5044058;28;20025;-74
2023/06/27 00:34:49;;;;;;;12.57;4.13;;;15.40;99.90;;;;;;5025924;28;20021;-74
2023/06/27 00:37:16;;;;;;;13.45;4.22;;;15.30;99.90;;;;;;5043715;28;20090;-76
2023/06/27 00:39:41;;;;;;;18.55;4.18;;;15.30;99.90;;;;;;5026025;28;20452;-73
2023/06/27 00:42:07;;;;;;;15.82;3.83;;;15.30;99.90;;;;;;5025762;28;20071;-74
2023/06/27 00:44:32;;;;;;;19.33;4.13;;;15.30;99.90;;;;;;5041145;28;20036;-73
2023/06/27 00:46:58;;;;;;;18.35;4.35;;;15.30;99.90;;;;;;5043861;28;20029;-74
2023/06/27 00:49:24;;;;;;;17.10;4.13;;;15.40;99.90;;;;;;5043595;28;20064;-73
2023/06/27 00:51:51;;;;;;;17.75;3.40;;;15.30;99.90;;;;;;5026094;28;20040;-75
2023/06/27 00:54:17;;;;;;;14.35;3.50;;;15.30;99.90;;;;;;5025955;28;20024;-73
2023/06/27 00:56:43;;;;;;;21.60;5.55;;;15.30;99.90;;;;;;5025512;28;20025;-75
2023/06/27 00:59:09;;;;;;;20.10;4.82;;;15.20;99.90;;;;;;5025658;28;20028;-73
2023/06/27 01:01:34;;;;;;;15.73;4.45;;;15.20;99.90;;;;;;5043535;28;20033;-73
2023/06/27 01:04:00;;;;;;;16.80;4.82;;;15.10;99.90;;;;;;5043363;28;20034;-75
2023/06/27 01:06:41;;;;;;;13.05;4.07;;;15.10;99.90;;;;;;5043771;28;20033;-75
2023/06/27 01:09:11;;;;;;;16.13;4.13;;;15.10;99.90;;;;;;5041874;28;20026;-73
2023/06/27 01:11:47;;;;;;;18.05;4.43;;;15.00;99.90;;;;;;5040856;28;20109;-74
2023/06/27 01:14:16;;;;;;;19.55;4.53;;;15.00;99.90;;;;;;5025826;28;20037;-75
2023/06/27 01:16:45;;;;;;;20.75;4.35;;;15.00;99.90;;;;;;5040897;28;20089;-74
2023/06/27 01:19:12;;;;;;;15.40;4.70;;;15.00;99.90;;;;;;5043276;28;20037;-73
2023/06/27 01:21:39;;;;;;;13.63;4.15;;;15.00;99.90;;;;;;5043896;28;20052;-74
2023/06/27 01:24:08;;;;;;;11.25;3.85;;;15.00;99.90;;;;;;5037252;28;20037;-75
2023/06/27 01:26:34;;;;;;;18.83;4.50;;;14.90;99.90;;;;;;5043883;28;20030;-75
2023/06/27 01:29:00;;;;;;;14.98;4.00;;;14.90;99.90;;;;;;5026474;28;20052;-75
2023/06/27 01:31:38;;;;;;;15.40;3.88;;;14.90;99.90;;;;;;5047886;28;20026;-73
2023/06/27 01:34:29;;;;;;;13.68;4.32;;;14.90;99.90;;;;;;5029658;28;20470;-74
2023/06/27 01:37:09;;;;;;;11.02;3.95;;;14.90;99.90;;;;;;5047932;28;20026;-74
2023/06/27 01:39:44;;;;;;;14.48;3.92;;;14.80;99.90;;;;;;5047424;28;20451;-74
2023/06/27 01:42:16;;;;;;;25.20;5.22;;;14.80;99.90;;;;;;5029807;28;20097;-75
2023/06/27 01:44:46;;;;;;;14.27;4.18;;;14.80;99.90;;;;;;5029465;28;20025;-74
2023/06/27 01:47:12;;;;;;;16.17;4.85;;;14.80;99.90;;;;;;5029489;28;20387;-74
2023/06/27 01:49:38;;;;;;;17.80;4.43;;;14.80;99.90;;;;;;5047458;28;20056;-74
2023/06/27 01:52:04;;;;;;;22.13;4.63;;;14.80;99.90;;;;;;5047322;28;20034;-73
2023/06/27 01:54:29;;;;;;;14.38;4.25;;;14.80;99.90;;;;;;5047449;28;20478;-74
2023/06/27 01:56:55;;;;;;;12.10;3.80;;;14.80;99.90;;;;;;5047644;28;20051;-73
2023/06/27 01:59:21;;;;;;;22.23;4.47;;;14.80;99.90;;;;;;5047068;28;20116;-74
2023/06/27 02:01:46;;;;;;;17.08;4.80;;;14.90;99.90;;;;;;5047160;28;20026;-75
2023/06/27 02:04:12;;;;;;;14.43;4.65;;;14.80;99.90;;;;;;5029256;28;20044;-76
2023/06/27 02:06:37;;;;;;;16.13;4.05;;;14.70;99.90;;;;;;5029080;28;20026;-73
2023/06/27 02:09:04;;;;;;;15.07;3.75;;;14.90;99.90;;;;;;5029318;28;20053;-74
2023/06/27 02:11:30;;;;;;;11.85;4.03;;;14.80;99.90;;;;;;5046989;28;20037;-75
2023/06/27 02:13:55;;;;;;;12.77;4.18;;;14.70;99.90;;;;;;5036615;28;20089;-74
2023/06/27 02:16:21;;;;;;;14.00;4.15;;;14.80;99.90;;;;;;5046796;28;20040;-77
2023/06/27 02:18:46;;;;;;;15.93;4.53;;;14.60;99.90;;;;;;5046927;28;20029;-74
2023/06/27 02:21:12;;;;;;;15.05;4.60;;;14.60;99.90;;;;;;5046859;28;20037;-74
2023/06/27 02:23:38;;;;;;;12.30;4.07;;;14.60;99.90;;;;;;5029012;28;20071;-73
2023/06/27 02:26:03;;;;;;;17.27;4.28;;;14.60;99.90;;;;;;5047106;28;20108;-73
2023/06/27 02:28:29;;;;;;;13.07;4.30;;;14.50;99.90;;;;;;5045470;28;20057;-74
2023/06/27 02:30:55;;;;;;;12.13;3.95;;;14.50;99.90;;;;;;5045483;28;20485;-74
2023/06/27 02:33:20;;;;;;;10.82;3.92;;;14.50;99.90;;;;;;5046677;28;20653;-74
2023/06/27 02:35:46;;;;;;;14.35;4.18;;;14.50;99.90;;;;;;5044832;28;20405;-74
2023/06/27 02:38:12;;;;;;;10.68;4.18;;;14.50;99.90;;;;;;5046384;28;20021;-74
2023/06/27 02:40:37;;;;;;;13.05;3.97;;;14.50;99.90;;;;;;5046486;28;20032;-73
2023/06/27 02:43:03;;;;;;;15.52;4.30;;;14.50;99.90;;;;;;5044794;28;20037;-74
2023/06/27 02:45:28;;;;;;;15.00;4.10;;;14.50;99.90;;;;;;5045516;28;20025;-74
2023/06/27 02:47:54;;;;;;;15.45;4.97;;;14.40;99.90;;;;;;5045417;28;20029;-74
2023/06/27 02:50:19;;;;;;;18.00;4.75;;;14.50;99.90;;;;;;5046346;28;20033;-74
2023/06/27 02:52:45;;;;;;;19.98;5.15;;;14.50;99.90;;;;;;5028796;28;20022;-73
2023/06/27 02:55:10;;;;;;;12.32;4.53;;;14.50;99.90;;;;;;5046597;28;20052;-75
2023/06/27 02:57:36;;;;;;;10.23;4.65;;;14.40;99.90;;;;;;5046048;28;20056;-74
2023/06/27 03:00:03;;;;;;;12.73;5.22;;;14.40;99.90;;;;;;5028405;28;20035;-74
2023/06/27 03:02:29;;;;;;;15.07;5.57;;;14.40;99.90;;;;;;5046253;28;20063;-74
2023/06/27 03:04:54;;;;;;;17.45;5.88;;;14.30;99.90;;;;;;5028450;28;20017;-73
2023/06/27 03:07:20;;;;;;;15.82;4.90;;;14.30;99.90;;;;;;5046076;28;20060;-75
2023/06/27 03:09:45;;;;;;;17.30;5.30;;;14.30;99.90;;;;;;5028305;28;20052;-75
2023/06/27 03:12:11;;;;;;;10.80;4.90;;;14.30;99.90;;;;;;5045963;28;20033;-74
2023/06/27 03:14:36;;;;;;;14.20;5.20;;;14.30;99.90;;;;;;5028548;28;20050;-74
2023/06/27 03:17:02;;;;;;;19.10;5.13;;;14.30;99.90;;;;;;5044535;28;20022;-73
2023/06/27 03:19:28;;;;;;;15.80;5.20;;;14.30;99.90;;;;;;5045883;28;20022;-74
2023/06/27 03:21:53;;;;;;;19.70;4.85;;;14.20;99.90;;;;;;5044728;28;20068;-74
2023/06/27 03:24:19;;;;;;;11.65;4.72;;;14.20;99.90;;;;;;5045681;28;20609;-74
2023/06/27 03:26:44;;;;;;;14.93;5.10;;;14.20;99.90;;;;;;5045679;28;20033;-74
2023/06/27 03:29:10;;;;;;;15.57;5.20;;;14.20;99.90;;;;;;5045638;28;20180;-73
2023/06/27 03:31:35;;;;;;;13.98;5.30;;;14.20;99.90;;;;;;5045454;28;20030;-74
2023/06/27 03:34:01;;;;;;;14.85;4.78;;;14.10;99.90;;;;;;5045667;28;20028;-75
2023/06/27 03:36:29;;;;;;;12.70;4.82;;;14.20;99.90;;;;;;5044619;28;20093;-74
2023/06/27 03:38:54;;;;;;;12.02;4.78;;;14.10;99.90;;;;;;5044981;28;20037;-75
2023/06/27 03:41:20;;;;;;;12.02;5.22;;;14.20;99.90;;;;;;5045475;28;20030;-74
2023/06/27 03:43:45;;;;;;;12.77;4.93;;;14.10;99.90;;;;;;5045147;28;20033;-74
2023/06/27 03:46:12;;;;;;;7.63;4.60;;;14.10;99.90;;;;;;5043966;28;20025;-74
2023/06/27 03:48:38;;;;;;;13.30;5.25;;;14.20;99.90;;;;;;5044193;28;20405;-75
2023/06/27 03:51:03;;;;;;;13.63;5.25;;;14.10;99.90;;;;;;5045376;28;20035;-73
2023/06/27 03:53:29;;;;;;;13.57;4.70;;;14.10;99.90;;;;;;5043011;28;20029;-74
2023/06/27 03:55:55;;;;;;;13.07;4.93;;;14.00;99.90;;;;;;5045499;28;20048;-73
2023/06/27 03:58:20;;;;;;;11.43;5.00;;;14.10;99.90;;;;;;5043765;28;20021;-73
2023/06/27 04:00:46;;;;;;;15.57;5.00;;;14.10;99.90;;;;;;5044746;28;20536;-73
2023/06/27 04:03:11;;;;;;;11.43;5.00;;;14.10;99.90;;;;;;5043799;28;20041;-74
2023/06/27 04:05:37;;;;;;;12.13;4.68;;;14.10;99.90;;;;;;5044831;28;20037;-72
2023/06/27 04:08:03;;;;;;;15.65;4.75;;;14.10;99.90;;;;;;5043729;28;20029;-73
2023/06/27 04:10:28;;;;;;;10.90;4.50;;;14.10;99.90;;;;;;5045355;28;20131;-73
2023/06/27 04:12:54;;;;;;;13.50;4.70;;;14.00;99.90;;;;;;5044530;28;20087;-73
2023/06/27 04:15:20;;;;;;;10.25;4.72;;;14.00;99.90;;;;;;5043401;28;20060;-74
2023/06/27 04:17:45;;;;;;;13.77;4.90;;;14.10;99.90;;;;;;5044994;28;20109;-74
2023/06/27 04:20:12;;;;;;;10.93;5.20;;;14.10;99.90;;;;;;5044591;28;20068;-73
2023/06/27 04:22:37;;;;;;;12.65;4.85;;;14.10;99.90;;;;;;5043434;28;20041;-74
2023/06/27 04:25:04;;;;;;;15.65;4.82;;;14.00;99.90;;;;;;5044692;28;20064;-74
2023/06/27 04:27:29;;;;;;;12.27;5.30;;;14.00;99.90;;;;;;5044549;28;20029;-75
2023/06/27 04:29:56;;;;;;;13.07;4.70;;;14.00;99.90;;;;;;5044960;28;20036;-73
2023/06/27 04:32:22;;;;;;;9.75;4.65;;;14.10;99.90;;;;;;5044560;28;20030;-74
2023/06/27 04:34:48;;;;;;;17.17;5.57;;;14.00;99.90;;;;;;5043047;28;20025;-71
2023/06/27 04:37:18;;;;;;;10.35;5.00;;;14.00;99.90;;;;;;5044531;28;20030;-76
2023/06/27 04:39:43;;;;;;;15.73;5.40;;;13.90;99.90;;;;;;5042925;28;20049;-73
2023/06/27 04:42:09;;;;;;;13.73;5.00;;;13.90;99.90;;;;;;5044169;28;20029;-73
2023/06/27 04:44:35;;;;;;;16.30;5.43;;;14.00;99.90;;;;;;5032844;28;20091;-74
2023/06/27 04:47:01;;;;;;;13.27;5.15;;;14.00;99.90;;;;;;5038058;28;20029;-74
2023/06/27 04:49:26;;;;;;;14.45;5.20;;;13.90;99.90;;;;;;5043293;28;20069;-73
2023/06/27 04:51:52;;;;;;;10.63;5.20;;;14.00;99.90;;;;;;5044457;28;20083;-73
2023/06/27 04:54:17;;;;;;;12.52;5.57;;;14.00;99.90;;;;;;5044275;28;20478;-73
2023/06/27 04:56:43;;;;;;;16.40;6.13;;;13.90;99.90;;;;;;5039275;28;20032;-73
2023/06/27 04:59:09;;;;;;;10.88;5.15;;;14.00;99.90;;;;;;5016770;28;20030;-73
2023/06/27 05:01:35;;;;;;;14.18;5.30;;;14.00;99.90;;;;;;5030969;28;20053;-73
2023/06/27 05:04:04;;;;;;;11.57;4.90;;;14.00;99.90;;;;;;5033298;28;20064;-74
2023/06/27 05:06:31;;;;;;;17.55;5.63;;;14.00;99.90;;;;;;5043740;28;20120;-73
2023/06/27 05:08:56;;;;;;;11.00;5.18;;;14.20;99.90;;;;;;5038130;28;20467;-74
2023/06/27 05:11:22;;;;;;;14.65;5.15;;;14.20;99.90;;;;;;5047647;28;20090;-75
2023/06/27 05:13:47;;;;;;;10.13;5.28;;;14.30;99.90;;;;;;5043695;28;20034;-74
2023/06/27 05:16:13;;;;;;;13.18;5.30;;;14.30;99.90;;;;;;5037250;28;20048;-73
2023/06/27 05:18:39;;;;;;;10.52;4.50;;;14.40;99.90;;;;;;5047374;28;20049;-73
2023/06/27 05:21:04;;;;;;;20.55;5.57;;;14.50;99.90;;;;;;5048228;28;20029;-74
2023/06/27 05:23:30;;;;;;;12.82;4.75;;;14.50;99.90;;;;;;5043107;28;20390;-75
2023/06/27 05:25:55;;;;;;;11.60;4.85;;;14.60;99.90;;;;;;5026124;28;20099;-72
2023/06/27 05:28:21;;;;;;;12.57;4.60;;;14.70;99.90;;;;;;5039981;28;20029;-73
2023/06/27 05:30:46;;;;;;;13.13;4.97;;;14.80;99.90;;;;;;5044670;28;20033;-72
2023/06/27 05:33:12;;;;;;;12.20;4.93;;;14.80;99.90;;;;;;5044302;28;20021;-73
2023/06/27 05:35:38;;;;;;;13.40;4.85;;;14.90;99.90;;;;;;5031156;28;20040;-74
2023/06/27 05:38:03;;;;;;;15.38;4.60;;;15.00;99.90;;;;;;5047252;28;20029;-75
2023/06/27 05:40:29;;;;;;;12.77;4.63;;;15.20;99.90;;;;;;5047342;28;20041;-74
2023/06/27 05:42:54;;;;;;;10.90;4.47;;;15.20;99.90;;;;;;5047322;28;20053;-74
2023/06/27 05:45:20;;;;;;;11.60;4.72;;;15.30;99.90;;;;;;5028745;28;20038;-71
2023/06/27 05:47:46;;;;;;;14.65;4.80;;;15.40;99.90;;;;;;5036056;28;20034;-73
2023/06/27 05:50:11;;;;;;;14.60;4.80;;;15.40;99.90;;;;;;5032461;28;20034;-73
2023/06/27 05:52:37;;;;;;;23.85;4.22;;;15.40;99.90;;;;;;5038561;28;20033;-73
2023/06/27 05:55:02;;;;;;;10.52;4.43;;;15.50;99.90;;;;;;5046372;28;20040;-74
2023/06/27 05:57:28;;;;;;;13.23;4.35;;;15.40;99.90;;;;;;5045996;28;20034;-71
2023/06/27 05:59:53;;;;;;;10.38;4.18;;;15.50;99.90;;;;;;5040980;28;20075;-72
2023/06/27 06:02:19;;;;;;;14.15;4.30;;;15.40;99.90;;;;;;5047051;28;20394;-75
2023/06/27 06:04:45;;;;;;;12.68;4.45;;;15.40;99.90;;;;;;5029083;28;20036;-72
2023/06/27 06:07:11;;;;;;;11.80;4.07;;;15.50;99.90;;;;;;5046837;28;20065;-73
2023/06/27 06:09:37;;;;;;;12.75;4.10;;;15.60;99.90;;;;;;5046848;28;20029;-72
2023/06/27 06:12:02;;;;;;;10.27;4.07;;;15.50;99.90;;;;;;5047056;28;20470;-70
2023/06/27 06:14:28;;;;;;;10.73;3.90;;;15.60;99.90;;;;;;5047223;28;20029;-74
2023/06/27 06:16:54;;;;;;;13.80;4.30;;;15.70;99.90;;;;;;5046576;28;20026;-72
2023/06/27 06:19:19;;;;;;;14.57;4.18;;;15.80;99.90;;;;;;5046650;28;20110;-72
2023/06/27 06:21:45;;;;;;;14.25;4.18;;;15.90;99.90;;;;;;5046961;28;20036;-72
2023/06/27 06:24:11;;;;;;;9.15;3.65;;;15.90;99.90;;;;;;5046919;28;20044;-71
2023/06/27 06:26:37;;;;;;;10.95;3.50;;;16.10;99.90;;;;;;5046564;28;20096;-73
2023/06/27 06:29:03;;;;;;;15.45;3.90;;;16.10;99.90;;;;;;5045036;28;20021;-73
2023/06/27 06:31:29;;;;;;;10.93;3.60;;;16.10;99.90;;;;;;5047172;28;20033;-74
2023/06/27 06:33:56;;;;;;;9.18;3.78;;;16.20;99.90;;;;;;5046658;28;20026;-72
2023/06/27 06:36:21;;;;;;;15.32;3.78;;;16.40;99.90;;;;;;5046905;28;20357;-72
2023/06/27 06:38:47;;;;;;;16.52;3.70;;;16.40;99.90;;;;;;5046300;28;20083;-72
2023/06/27 06:41:13;;;;;;;9.98;3.40;;;16.40;99.90;;;;;;5028597;28;20037;-73
2023/06/27 06:43:38;;;;;;;10.70;3.60;;;16.50;99.90;;;;;;5028782;28;20040;-72
2023/06/27 06:46:05;;;;;;;12.63;3.05;;;16.60;99.90;;;;;;5029193;28;20029;-74
2023/06/27 06:48:30;;;;;;;9.95;3.20;;;16.70;99.90;;;;;;5046206;28;20021;-71
2023/06/27 06:50:56;;;;;;;17.20;2.85;;;16.70;99.90;;;;;;5043969;28;20057;-72
2023/06/27 06:53:22;;;;;;;15.68;3.40;;;16.80;99.90;;;;;;5039556;28;20504;-74
2023/06/27 06:55:48;;;;;;;8.35;3.30;;;16.90;99.90;;;;;;5039268;28;20485;-72
2023/06/27 06:58:14;;;;;;;13.82;3.42;;;17.00;99.90;;;;;;5030853;28;20032;-73
2023/06/27 07:00:40;;;;;;;11.70;3.60;;;17.10;99.90;;;;;;5039513;28;20025;-75
2023/06/27 07:03:09;;;;;;;14.25;3.80;;;17.10;99.90;;;;;;5043917;28;20041;-73
2023/06/27 07:05:38;;;;;;;10.07;3.38;;;17.20;99.90;;;;;;5044423;28;20029;-70
2023/06/27 07:08:04;;;;;;;13.30;3.38;;;17.20;99.90;;;;;;5044457;28;20025;-72
2023/06/27 07:10:31;;;;;;;9.02;3.20;;;17.30;99.90;;;;;;5043324;28;20041;-74
2023/06/27 07:12:56;;;;;;;10.05;2.88;;;17.30;99.90;;;;;;5044204;28;20021;-74
2023/06/27 07:15:23;;;;;;;9.68;3.08;;;17.40;99.90;;;;;;5045064;28;20199;-73
2023/06/27 07:17:50;;;;;;;11.77;2.90;;;17.40;99.90;;;;;;5042389;28;20025;-72
2023/06/27 07:20:16;;;;;;;8.93;2.85;;;17.50;99.90;;;;;;5027008;28;20034;-73
2023/06/27 07:22:42;;;;;;;12.77;3.45;;;17.60;99.90;;;;;;5027298;28;20108;-72
2023/06/27 07:25:08;;;;;;;11.80;2.80;;;17.70;99.90;;;;;;5043797;28;20017;-78
2023/06/27 07:27:33;;;;;;;6.70;2.50;;;17.70;99.90;;;;;;5043046;28;20072;-71
2023/06/27 07:29:59;;;;;;;10.75;2.53;;;17.80;99.90;;;;;;5044926;28;20033;-74
2023/06/27 07:32:25;;;;;;;11.00;2.55;;;17.80;99.90;;;;;;5043896;28;20064;-73
2023/06/27 07:34:50;;;;;;;11.55;2.53;;;18.10;99.90;;;;;;5035248;28;20029;-74
2023/06/27 07:37:16;;;;;;;9.93;2.40;;;18.10;99.90;;;;;;5027443;28;20026;-74
2023/06/27 07:39:42;;;;;;;8.52;2.00;;;18.20;99.90;;;;;;5045125;28;20053;-73
2023/06/27 07:42:07;;;;;;;12.10;2.53;;;18.20;99.90;;;;;;5026926;28;20033;-76
2023/06/27 07:44:34;;;;;;;11.05;2.38;;;18.20;99.90;;;;;;5025245;28;20037;-72
2023/06/27 07:47:00;;;;;;;8.50;2.53;;;18.20;99.90;;;;;;5040589;28;20026;-69
2023/06/27 07:49:25;;;;;;;10.05;2.17;;;18.30;99.90;;;;;;5030025;28;20041;-75
2023/06/27 07:51:51;;;;;;;10.70;2.53;;;18.40;99.90;;;;;;5043574;28;20065;-69
2023/06/27 07:54:21;;;;;;;9.48;2.03;;;18.40;99.90;;;;;;5044529;28;20583;-70
2023/06/27 07:56:52;;;;;;;9.85;2.08;;;18.50;99.90;;;;;;5026232;28;20423;-70
2023/06/27 07:59:17;;;;;;;9.35;2.20;;;18.60;99.90;;;;;;5044156;28;20029;-70
2023/06/27 08:01:43;;;;;;;10.15;2.08;;;18.60;99.90;;;;;;5042504;28;20393;-71
2023/06/27 08:04:09;;;;;;;8.00;2.30;;;18.70;99.90;;;;;;5043348;28;20069;-67
2023/06/27 08:06:34;;;;;;;10.57;2.85;;;18.90;99.90;;;;;;5043276;28;20109;-72
2023/06/27 08:09:00;;;;;;;7.85;2.00;;;18.90;99.90;;;;;;5043517;28;20025;-71
2023/06/27 08:11:25;;;;;;;8.90;2.30;;;18.90;99.90;;;;;;5033307;28;20029;-70
2023/06/27 08:13:51;;;;;;;12.35;2.30;;;18.80;99.90;;;;;;5035115;28;20049;-71
2023/06/27 08:16:16;;;;;;;9.52;2.20;;;18.70;99.90;;;;;;5016267;28;20398;-71
2023/06/27 08:18:42;;;;;;;8.52;2.10;;;18.70;99.90;;;;;;5031011;28;20079;-68
2023/06/27 08:21:07;;;;;;;12.55;2.17;;;18.80;99.90;;;;;;5032191;28;20038;-72
2023/06/27 08:23:33;;;;;;;6.07;1.88;;;18.90;99.90;;;;;;5035834;28;20076;-69
2023/06/27 08:25:59;;;;;;;7.80;1.88;;;19.00;99.90;;;;;;5036541;28;20037;-72
2023/06/27 08:28:24;;;;;;;12.63;2.10;;;19.10;99.90;;;;;;5027931;28;20045;-72
2023/06/27 08:30:50;;;;;;;4.38;1.88;;;19.10;99.90;;;;;;5025226;28;20088;-72
2023/06/27 08:33:16;;;;;;;9.10;2.38;;;19.10;99.90;;;;;;5025312;28;20034;-73
2023/06/27 08:35:43;;;;;;;7.20;2.00;;;19.00;99.90;;;;;;5042382;28;20014;-72
2023/06/27 08:38:10;;;;;;;10.73;2.25;;;18.90;99.90;;;;;;5042916;28;20057;-73
2023/06/27 08:40:36;;;;;;;10.20;2.05;;;18.90;99.90;;;;;;5025768;28;20148;-75
2023/06/27 08:43:04;;;;;;;10.00;1.92;;;18.80;99.90;;;;;;5041065;28;20405;-70
2023/06/27 08:45:30;;;;;;;6.50;1.80;;;18.80;99.90;;;;;;5043769;28;20029;-73
2023/06/27 08:47:56;;;;;;;6.20;1.60;;;18.90;99.90;;;;;;5037582;28;20032;-72
2023/06/27 08:50:23;;;;;;;6.30;1.83;;;18.90;99.90;;;;;;5027262;28;20026;-73
2023/06/27 08:52:55;;;;;;;10.20;2.10;;;18.90;99.90;;;;;;5041045;28;20047;-71
2023/06/27 08:55:55;;;;;;;10.18;2.10;;;18.90;99.90;;;;;;5043704;28;20144;-70
2023/06/27 08:58:27;;;;;;;3.90;1.63;;;19.00;99.90;;;;;;5003950;28;20098;-71
2023/06/27 09:00:54;;;;;;;8.60;2.42;;;19.00;99.90;;;;;;5033983;28;20505;-73
2023/06/27 09:03:20;;;;;;;9.70;2.80;;;19.00;99.90;;;;;;5043417;28;20041;-71
2023/06/27 09:05:47;;;;;;;8.80;2.03;;;18.90;99.90;;;;;;5035058;28;20026;-72
2023/06/27 09:08:13;;;;;;;8.05;2.13;;;18.80;99.90;;;;;;5044528;28;20022;-73
2023/06/27 09:10:40;;;;;;;7.60;2.08;;;18.80;99.90;;;;;;5043512;28;20081;-73
2023/06/27 09:13:07;;;;;;;8.80;2.17;;;18.80;99.90;;;;;;5036712;28;20025;-71
2023/06/27 09:15:33;;;;;;;10.68;2.08;;;18.60;99.90;;;;;;5044268;28;20033;-73
2023/06/27 09:17:59;;;;;;;10.35;2.33;;;18.40;99.90;;;;;;5042274;28;20021;-72
2023/06/27 09:20:24;;;;;;;6.78;2.00;;;18.30;99.90;;;;;;5044354;28;20105;-75
2023/06/27 09:22:51;;;;;;;9.63;1.95;;;18.30;99.90;;;;;;5043145;28;20036;-73
2023/06/27 09:25:20;;;;;;;5.65;1.50;;;18.30;99.90;;;;;;5030073;28;20430;-75
2023/06/27 09:27:46;;;;;;;4.80;1.50;;;18.40;99.90;;;;;;5043692;28;20036;-73
2023/06/27 09:30:12;;;;;;;8.40;2.00;;;18.60;99.90;;;;;;5044245;28;20028;-74
2023/06/27 09:32:55;;;;;;;7.90;1.55;;;18.80;99.90;;;;;;5042376;28;20018;-70
2023/06/27 09:35:21;;;;;;;6.50;1.50;;;18.90;99.90;;;;;;5042919;28;20040;-71
2023/06/27 09:37:47;;;;;;;4.20;1.60;;;19.00;99.90;;;;;;5044051;28;20085;-73
2023/06/27 09:40:21;;;;;;;5.40;1.73;;;19.10;99.90;;;;;;5042762;28;20049;-74
2023/06/27 09:42:51;;;;;;;4.38;1.40;;;19.20;99.90;;;;;;5043404;28;20038;-73
2023/06/27 09:45:17;;;;;;;7.25;1.80;;;19.10;99.90;;;;;;5014913;28;20029;-73
2023/06/27 09:47:42;;;;;;;5.85;1.42;;;19.00;99.90;;;;;;5037573;28;20036;-73
2023/06/27 09:50:08;;;;;;;6.88;1.63;;;18.90;99.90;;;;;;5026744;28;20033;-73
2023/06/27 09:52:34;;;;;;;4.90;1.45;;;18.90;99.90;;;;;;5044281;28;20546;-74
2023/06/27 09:55:00;;;;;;;7.07;1.50;;;18.90;99.90;;;;;;5045101;28;20541;-73
2023/06/27 09:57:26;;;;;;;5.25;1.70;;;19.10;99.90;;;;;;5045092;28;20037;-74
2023/06/27 09:59:58;;;;;;;3.97;1.25;;;19.10;99.90;;;;;;5029019;28;20052;-73
2023/06/27 10:02:29;;;;;;;10.10;1.55;;;19.20;99.90;;;;;;5046377;28;20045;-73
2023/06/27 10:04:54;;;;;;;5.28;1.25;;;19.20;99.90;;;;;;5046554;28;20036;-70
2023/06/27 10:07:20;;;;;;;7.38;1.58;;;19.20;99.90;;;;;;5045112;28;20029;-74
2023/06/27 10:09:46;;;;;;;8.38;1.50;;;19.20;99.90;;;;;;5047043;28;20025;-73
2023/06/27 10:12:14;;;;;;;5.40;1.75;;;19.10;99.90;;;;;;5046973;28;20036;-74
2023/06/27 10:14:41;;;;;;;5.88;1.42;;;19.10;99.90;;;;;;5030075;28;20409;-72
2023/06/27 10:17:07;;;;;;;6.80;1.70;;;19.10;99.90;;;;;;5046374;28;20033;-73
2023/06/27 10:19:35;;;;;;;2.50;1.05;;;19.10;99.90;;;;;;5034967;28;20413;-73
2023/06/27 10:22:01;;;;;;;6.10;1.17;;;18.90;99.90;;;;;;5046446;28;20029;-72
2023/06/27 10:24:29;;;;;;;6.35;1.60;;;18.70;99.90;;;;;;5047064;28;20097;-70
2023/06/27 10:26:58;;;;;;;4.13;1.48;;;18.60;99.90;;;;;;5045734;28;20029;-74
2023/06/27 10:29:29;;;;;;;8.20;1.63;;;18.40;99.90;;;;;;5045246;28;20029;-72
2023/06/27 10:31:55;;;;;;;5.82;1.42;;;18.30;99.90;;;;;;5045668;28;20029;-73
2023/06/27 10:34:24;;;;;;;6.03;1.55;;;18.40;99.90;;;;;;5044495;28;20025;-72
2023/06/27 10:36:57;;;;;;;9.75;1.30;;;18.70;99.90;;;;;;5040238;28;20103;-76
2023/06/27 10:39:30;;;;;;;4.75;1.50;;;19.00;99.90;;;;;;5045946;28;20536;-73
2023/06/27 10:42:06;;;;;;;6.18;2.33;;;19.30;99.90;;;;;;5043261;28;20034;-73
2023/06/27 10:44:55;;;;;;;6.13;1.42;;;19.60;99.90;;;;;;5041384;28;20033;-71
2023/06/27 10:47:21;;;;;;;4.57;1.08;;;19.80;99.90;;;;;;5043084;28;20899;-74
2023/06/27 10:49:48;;;;;;;6.45;1.35;;;20.10;99.90;;;;;;5027047;28;20124;-74
2023/06/27 10:52:21;;;;;;;4.57;1.13;;;20.40;99.90;;;;;;5027528;28;20096;-73
2023/06/27 10:55:15;;;;;;;8.27;1.98;;;20.60;99.90;;;;;;5045471;28;20077;-71
2023/06/27 10:58:02;;;;;;;3.97;1.17;;;20.80;99.90;;;;;;5041025;28;20055;-69
2023/06/27 11:00:34;;;;;;;6.05;1.30;;;20.90;99.90;;;;;;5044916;28;20037;-71
2023/06/27 11:03:03;;;;;;;6.75;1.25;;;21.20;99.90;;;;;;5040562;28;20140;-74
2023/06/27 11:05:58;;;;;;;6.70;1.30;;;21.40;99.90;;;;;;5031133;28;20022;-74
2023/06/27 11:08:28;;;;;;;7.82;1.00;;;21.60;99.90;;;;;;5010003;28;20037;-77
2023/06/27 11:10:59;;;;;;;5.40;1.10;;;21.60;99.90;;;;;;5032573;28;20033;-74
2023/06/27 11:13:27;;;;;;;8.57;1.58;;;21.50;99.90;;;;;;5016775;28;20021;-72
2023/06/27 11:15:54;;;;;;;4.22;1.02;;;21.60;99.90;;;;;;5015568;28;20025;-72
2023/06/27 11:18:21;;;;;;;5.47;0.95;;;21.80;99.90;;;;;;5038230;28;20093;-74
2023/06/27 11:20:48;;;;;;;4.78;1.08;;;21.90;99.90;;;;;;5025622;28;20022;-71
2023/06/27 11:23:16;;;;;;;3.75;1.00;;;22.00;99.90;;;;;;5028564;28;20041;-76
2023/06/27 11:25:43;;;;;;;4.38;1.13;;;22.30;99.90;;;;;;5038640;28;20045;-75
2023/06/27 11:28:13;;;;;;;6.38;1.02;;;22.40;99.90;;;;;;5029267;28;20025;-71
2023/06/27 11:30:39;;;;;;;5.65;1.20;;;22.50;99.90;;;;;;5030856;28;20022;-72
2023/06/27 11:33:06;;;;;;;4.53;1.13;;;22.40;99.90;;;;;;5041065;28;20028;-73
2023/06/27 11:35:33;;;;;;;6.35;1.23;;;22.40;99.90;;;;;;5033984;28;20021;-72
2023/06/27 11:37:59;;;;;;;9.80;1.20;;;22.40;99.90;;;;;;5033621;28;20022;-72
2023/06/27 11:40:24;;;;;;;7.82;1.10;;;22.60;99.90;;;;;;5019230;28;20060;-72
2023/06/27 11:42:51;;;;;;;3.30;1.17;;;22.80;99.90;;;;;;5005677;28;20049;-74
2023/06/27 11:45:16;;;;;;;3.47;1.00;;;23.00;99.90;;;;;;5004425;28;20447;-72
2023/06/27 11:47:44;;;;;;;5.88;0.90;;;23.10;99.90;;;;;;5003943;28;20033;-72
2023/06/27 11:50:11;;;;;;;5.93;1.30;;;22.90;99.90;;;;;;5003000;28;20033;-72
2023/06/27 11:52:38;;;;;;;5.30;1.00;;;22.70;99.90;;;;;;5005218;28;20039;-74
2023/06/27 11:55:05;;;;;;;8.48;1.13;;;22.40;99.90;;;;;;5006165;28;20376;-73
2023/06/27 11:57:48;;;;;;;4.65;1.10;;;22.50;99.90;;;;;;5004356;28;20052;-74
2023/06/27 12:00:22;;;;;;;7.00;1.08;;;22.50;99.90;;;;;;5024637;28;20030;-70
2023/06/27 12:02:53;;;;;;;2.83;0.90;;;22.40;99.90;;;;;;5024210;28;20040;-73
2023/06/27 12:05:21;;;;;;;6.57;1.10;;;22.20;99.90;;;;;;5024932;28;20025;-74
2023/06/27 12:08:06;;;;;;;5.43;1.10;;;22.10;99.90;;;;;;5025196;28;20081;-71
2023/06/27 12:10:54;;;;;;;5.88;1.10;;;22.00;99.90;;;;;;5025336;28;20218;-71
2023/06/27 12:13:19;;;;;;;5.13;1.00;;;22.30;99.90;;;;;;5024409;28;20072;-72
2023/06/27 12:15:46;;;;;;;5.63;1.25;;;22.20;99.90;;;;;;5025453;28;20022;-72
2023/06/27 12:18:23;;;;;;;5.28;1.00;;;22.30;99.90;;;;;;5024499;28;20022;-74
2023/06/27 12:20:51;;;;;;;8.15;1.20;;;22.30;99.90;;;;;;5025013;28;20030;-73
2023/06/27 12:23:17;;;;;;;4.53;0.90;;;22.10;99.90;;;;;;5023682;28;20038;-70
2023/06/27 12:25:42;;;;;;;2.78;1.00;;;22.00;99.90;;;;;;5024638;28;20063;-70
2023/06/27 12:28:08;;;;;;;7.78;1.08;;;21.80;99.90;;;;;;5024020;28;20052;-72
2023/06/27 12:30:34;;;;;;;9.02;1.42;;;21.70;99.90;;;;;;5024926;28;20042;-70
2023/06/27 12:33:01;;;;;;;2.85;0.70;;;21.60;99.90;;;;;;5023301;28;20022;-73
2023/06/27 12:35:26;;;;;;;1.90;0.80;;;21.50;99.90;;;;;;5025070;28;20034;-71
2023/06/27 12:37:52;;;;;;;6.47;0.98;;;21.60;99.90;;;;;;5024924;28;20021;-69
2023/06/27 12:40:20;;;;;;;7.78;0.90;;;21.80;99.90;;;;;;5042651;28;20068;-69